Terminal Aerodrome Forecast
Issued by NWS Huntsville, AL

Home | Current Version | Previous Version | Text Only | Print | Product List | Glossary On
Versions: 1 2 3 4 5 6 7 8 9 10 11 12 13 14 15 16 17 18 19 20 21 22 23 24 25 26 27 28 29 30 31 32 33 34
000
FTUS44 KHUN 280531
TAFMSL
TAF
KMSL 280531Z 2806/2906 11003KT P6SM SCT150
      TEMPO 2807/2810 5SM BR
     FM281300 15010KT P6SM FEW015 SCT110
     FM281400 16010G16KT P6SM BKN015
     FM281700 17012G20KT P6SM BKN025
     FM281900 18014G22KT P6SM SCT030
     FM290100 16010KT P6SM BKN025=

USA.gov is the U.S. government's official web portal to all federal, state and local government web resources and services.